M I D A S
Marine Information and Data Acquisition System
Tripno 1471 of the Zeeleeuw from 2008-02-21 08:08:07 to 2008-02-21 13:14:37
Back to CruiseResearch ActivitiesStationsMapUnderway DataData graphs

EquipmentUnitsComments
TimeDGPSUTC
LatitudeDGPSDM.mWGS84
LongitudeDGPSDM.mWGS84
SpeedMeteo Stationm/sRelative wind speed
DirectionMeteo StationdegRelative wind direction
TemperatureMeteo Stationdeg CelciusAir temperature
PressureMeteo StationPaAtmospheric pressure
HumidityMeteo Station%Relative humidity
Missing or incorrect values are displayed as -999
Metereological data collected by the RV Zeeleeuw from 2008-02-21 08:05:32 to 2008-02-21 13:29:38
Time Latitude Longitude Speed Direction Temperature Pressure Humidity
2008-02-21 08:06 51°13.664 2°55.956 2 24 5.3 102200 100
2008-02-21 08:07 51°13.663 2°55.956 2.3 3 5.3 102200 100
2008-02-21 08:08 51°13.662 2°55.955 3.4 6 5.3 102200 100
2008-02-21 08:09 51°13.676 2°55.896 3.6 44 5.4 102200 100
2008-02-21 08:10 51°13.694 2°55.804 2 31 5.4 102190 100
2008-02-21 08:11 51°13.703 2°55.777 3.2 42 5.4 102190 100
2008-02-21 08:12 51°13.701 2°55.753 5.3 32 5.4 102190 100
2008-02-21 08:13 51°13.712 2°55.751 3 36 5.4 102190 100
2008-02-21 08:14 51°13.712 2°55.74 3.3 33 5.6 102190 100
2008-02-21 08:15 51°13.807 2°55.659 5.6 250 5.6 102190 100
2008-02-21 08:16 51°13.915 2°55.576 3.1 32 5.6 102190 100
2008-02-21 08:17 51°14.008 2°55.505 3.3 253 5.6 102200 100
2008-02-21 08:18 51°14.101 2°55.434 5.5 243 5.6 102200 100
2008-02-21 08:19 51°14.229 2°55.307 5.5 331 5.7 102190 100
2008-02-21 08:20 51°14.343 2°55.106 8.9 319 5.8 102180 100
2008-02-21 08:21 51°14.448 2°54.84 13.8 239 5.8 102180 100
2008-02-21 08:22 51°14.533 2°54.54 13.5 35 5.9 102180 100
2008-02-21 08:23 51°14.476 2°54.22 15.6 324 6 102160 100
2008-02-21 08:24 51°14.377 2°53.919 12.7 319 6 102160 100
2008-02-21 08:25 51°14.291 2°53.604 13.2 319 6.1 102160 100
2008-02-21 08:26 51°14.21 2°53.284 13.9 318 6.1 102160 100
2008-02-21 08:27 51°14.125 2°52.971 15.5 316 6 102170 99
2008-02-21 08:28 51°14.038 2°52.653 15.1 318 6 102160 99
2008-02-21 08:29 51°13.935 2°52.349 14.5 321 6 102170 99
2008-02-21 08:30 51°13.812 2°52.063 14.3 321 6 102170 99
2008-02-21 08:31 51°13.7 2°51.764 14.4 323 6 102160 99
2008-02-21 08:32 51°13.59 2°51.465 14.9 324 6.2 102170 100
2008-02-21 08:33 51°13.48 2°51.167 15.2 324 6.4 102170 100
2008-02-21 08:34 51°13.371 2°50.868 16.4 324 6.5 102170 99
2008-02-21 08:35 51°13.261 2°50.567 15 323 6.6 102170 99
2008-02-21 08:36 51°13.156 2°50.259 14.6 322 6.6 102170 99
2008-02-21 08:37 51°13.048 2°49.949 16.4 324 6.7 102190 99
2008-02-21 08:38 51°12.941 2°49.637 16.3 322 6.7 102180 98
2008-02-21 08:39 51°12.835 2°49.322 16 323 6.7 102170 98
2008-02-21 08:40 51°12.726 2°49.009 16.2 321 6.7 102180 98
2008-02-21 08:41 51°12.621 2°48.691 14.7 321 6.7 102180 98
2008-02-21 08:42 51°12.513 2°48.376 13 323 6.7 102190 98
2008-02-21 08:43 51°12.405 2°48.06 13.9 323 6.7 102180 98
2008-02-21 08:44 51°12.295 2°47.746 13.8 322 6.7 102180 98
2008-02-21 08:45 51°12.187 2°47.431 15.4 322 6.6 102180 98
2008-02-21 08:46 51°12.082 2°47.112 14.8 321 6.6 102180 98
2008-02-21 08:47 51°12.009 2°46.771 12.8 319 6.6 102170 98
2008-02-21 08:48 51°11.946 2°46.422 13.9 319 6.6 102170 98
2008-02-21 08:49 51°11.885 2°46.073 16.8 320 6.6 102180 98
2008-02-21 08:50 51°11.834 2°45.721 15 320 6.7 102170 98
2008-02-21 08:51 51°11.78 2°45.371 16 321 6.8 102160 98
2008-02-21 08:52 51°11.728 2°45.022 17.2 321 6.9 102160 98
2008-02-21 08:53 51°11.677 2°44.676 17.5 321 7 102160 98
2008-02-21 08:54 51°11.623 2°44.332 15.9 321 7.1 102150 98
2008-02-21 08:55 51°11.573 2°43.988 14.6 321 7.2 102150 98
2008-02-21 08:56 51°11.534 2°43.643 14.7 319 7.3 102160 98
2008-02-21 08:57 51°11.488 2°43.307 16.8 321 7.3 102150 98
2008-02-21 08:58 51°11.4 2°42.997 14.9 325 7.3 102170 98
2008-02-21 08:59 51°11.303 2°42.688 18.1 325 7.4 102170 97
2008-02-21 09:00 51°11.209 2°42.375 16.3 325 7.4 102160 97
2008-02-21 09:01 51°11.113 2°42.063 16.4 324 7.5 102170 97
2008-02-21 09:02 51°11.019 2°41.748 16.1 325 7.5 102180 97
2008-02-21 09:03 51°10.924 2°41.433 16.9 326 7.5 102170 97
2008-02-21 09:04 51°10.827 2°41.12 15.1 324 7.6 102190 97
2008-02-21 09:05 51°10.731 2°40.808 16.2 325 7.6 102170 97
2008-02-21 09:06 51°10.634 2°40.496 17.2 326 7.7 102180 97
2008-02-21 09:07 51°10.536 2°40.183 16.6 326 7.7 102180 96
2008-02-21 09:08 51°10.439 2°39.869 14.2 324 7.7 102180 96
2008-02-21 09:09 51°10.344 2°39.553 18 325 7.7 102180 96
2008-02-21 09:10 51°10.246 2°39.24 17.7 325 7.8 102180 96
2008-02-21 09:11 51°10.149 2°38.924 17.1 325 7.8 102190 96
2008-02-21 09:12 51°10.052 2°38.608 14.2 326 7.9 102190 96
2008-02-21 09:13 51°9.955 2°38.292 15.3 324 7.9 102180 96
2008-02-21 09:14 51°9.862 2°37.972 16.9 324 7.9 102180 96
2008-02-21 09:15 51°9.778 2°37.647 15.4 326 7.9 102190 96
2008-02-21 09:16 51°9.694 2°37.322 16.1 323 7.9 102190 95
2008-02-21 09:17 51°9.609 2°36.997 16.3 324 7.9 102180 95
2008-02-21 09:18 51°9.524 2°36.672 15 325 7.9 102190 95
2008-02-21 09:19 51°9.453 2°36.396 13.4 324 7.9 102170 96
2008-02-21 09:20 51°9.384 2°36.303 12.2 358 7.9 102210 96
2008-02-21 09:21 51°9.327 2°36.355 9.8 24 7.9 102180 96
2008-02-21 09:22 51°9.298 2°36.451 7.9 39 7.9 102200 95
2008-02-21 09:23 51°9.305 2°36.513 7.8 37 7.9 102200 96
2008-02-21 09:24 51°9.313 2°36.557 8.9 43 7.8 102200 96
2008-02-21 09:25 51°9.312 2°36.574 9.2 40 7.8 102180 96
2008-02-21 09:26 51°9.309 2°36.59 9.3 35 7.9 102220 96
2008-02-21 09:27 51°9.304 2°36.607 8.8 37 7.9 102200 96
2008-02-21 09:28 51°9.299 2°36.626 8.6 36 7.9 102210 96
2008-02-21 09:29 51°9.294 2°36.644 9.1 36 7.9 102180 96
2008-02-21 09:30 51°9.288 2°36.662 9.8 35 7.9 102190 96
2008-02-21 09:31 51°9.282 2°36.681 9.9 34 7.9 102180 96
2008-02-21 09:32 51°9.275 2°36.701 9.3 36 7.9 102190 96
2008-02-21 09:33 51°9.271 2°36.722 8.5 40 8 102190 96
2008-02-21 09:34 51°9.266 2°36.745 9.5 34 8 102180 96
2008-02-21 09:35 51°9.259 2°36.767 8.3 37 8.1 102190 96
2008-02-21 09:36 51°9.253 2°36.789 8.8 35 8.1 102200 96
2008-02-21 09:37 51°9.246 2°36.811 9.6 35 8.1 102200 96
2008-02-21 09:38 51°9.24 2°36.833 9.4 37 8.1 102200 96
2008-02-21 09:39 51°9.235 2°36.858 9.3 33 8.1 102200 96
2008-02-21 09:40 51°9.228 2°36.883 10.5 35 8.1 102200 96
2008-02-21 09:41 51°9.223 2°36.909 10.2 32 8.1 102210 96
2008-02-21 09:42 51°9.216 2°36.937 10.1 34 8.2 102200 96
2008-02-21 09:43 51°9.212 2°36.967 8.8 32 8.2 102200 95
2008-02-21 09:44 51°9.209 2°36.994 8.8 35 8.1 102200 95
2008-02-21 09:45 51°9.204 2°37.018 9.1 34 8.1 102190 95
2008-02-21 09:46 51°9.2 2°37.036 10.1 29 8.2 102200 95
2008-02-21 09:47 51°9.192 2°37.059 10 30 8.2 102210 95
2008-02-21 09:48 51°9.187 2°37.078 10.4 24 8.2 102210 95
2008-02-21 09:49 51°9.184 2°37.092 9.6 25 8.1 102210 95
2008-02-21 09:50 51°9.181 2°37.107 8.7 20 8.1 102210 95
2008-02-21 09:51 51°9.176 2°37.122 8.7 21 8.1 102210 95
2008-02-21 09:52 51°9.172 2°37.138 9.8 15 8.1 102210 95
2008-02-21 09:53 51°9.169 2°37.154 8.8 15 8.1 102210 95
2008-02-21 09:54 51°9.166 2°37.172 8.3 14 8.1 102200 95
2008-02-21 09:55 51°9.164 2°37.189 9.8 18 8.1 102210 95
2008-02-21 09:56 51°9.138 2°37.208 11.2 350 8.1 102210 95
2008-02-21 09:57 51°9.101 2°37.126 13.3 33 8.1 102200 96
2008-02-21 09:58 51°9.112 2°37.102 11 260 8.2 102220 96
2008-02-21 09:59 51°9.119 2°37.114 7.8 263 8.2 102230 95
2008-02-21 10:00 51°9.125 2°37.13 6.5 264 8.2 102220 95
2008-02-21 10:01 51°9.129 2°37.149 8.6 261 8.2 102230 95
2008-02-21 10:02 51°9.133 2°37.17 7.7 263 8.2 102230 95
2008-02-21 10:03 51°9.137 2°37.191 10.7 261 8.2 102230 95
2008-02-21 10:04 51°9.142 2°37.214 6.4 264 8.2 102220 95
2008-02-21 10:05 51°9.146 2°37.236 9.3 260 8.2 102230 95
2008-02-21 10:06 51°9.151 2°37.259 8.5 261 8.2 102240 95
2008-02-21 10:07 51°9.156 2°37.282 8 262 8.2 102240 96
2008-02-21 10:08 51°9.161 2°37.305 7.6 261 8.2 102230 96
2008-02-21 10:09 51°9.166 2°37.329 7.2 263 8.3 102240 96
2008-02-21 10:10 51°9.171 2°37.354 8.1 263 8.3 102220 96
2008-02-21 10:11 51°9.176 2°37.379 7.2 262 8.3 102230 96
2008-02-21 10:12 51°9.18 2°37.404 9.6 263 8.3 102220 95
2008-02-21 10:13 51°9.186 2°37.432 7.4 261 8.3 102230 96
2008-02-21 10:14 51°9.19 2°37.461 5.8 262 8.3 102230 95
2008-02-21 10:15 51°9.194 2°37.489 5.9 259 8.3 102230 95
2008-02-21 10:16 51°9.199 2°37.518 6.3 264 8.2 102230 95
2008-02-21 10:17 51°9.204 2°37.546 6 262 8.1 102230 95
2008-02-21 10:18 51°9.208 2°37.575 5.7 269 8.1 102230 96
2008-02-21 10:19 51°9.214 2°37.605 6 264 8.1 102230 96
2008-02-21 10:20 51°9.22 2°37.635 5.2 263 8.2 102230 96
2008-02-21 10:21 51°9.226 2°37.668 6.2 263 8.2 102220 96
2008-02-21 10:22 51°9.231 2°37.701 4.9 263 8.2 102220 96
2008-02-21 10:23 51°9.237 2°37.735 7.2 265 8.2 102220 96
2008-02-21 10:24 51°9.273 2°37.748 11.7 248 8.2 102220 96
2008-02-21 10:25 51°9.334 2°37.613 12.8 320 8.2 102210 96
2008-02-21 10:26 51°9.294 2°37.511 10.8 340 8.3 102210 96
2008-02-21 10:27 51°9.255 2°37.509 9.9 350 8.3 102200 96
2008-02-21 10:28 51°9.222 2°37.529 8.9 353 8.3 102190 96
2008-02-21 10:29 51°9.203 2°37.559 10 357 8.3 102190 96
2008-02-21 10:30 51°9.195 2°37.595 8.1 359 8.3 102200 96
2008-02-21 10:31 51°9.191 2°37.635 7.4 4 8.2 102200 96
2008-02-21 10:32 51°9.179 2°37.674 9.8 354 8.2 102210 96
2008-02-21 10:33 51°9.131 2°37.683 10.9 339 8.2 102170 96
2008-02-21 10:34 51°9.084 2°37.637 10.6 333 8.2 102180 96
2008-02-21 10:35 51°9.053 2°37.569 10.4 324 8.3 102190 96
2008-02-21 10:36 51°9.041 2°37.488 9.9 323 8.3 102200 96
2008-02-21 10:37 51°9.031 2°37.409 11.6 319 8.3 102190 96
2008-02-21 10:38 51°9.025 2°37.332 10.1 317 8.4 102190 96
2008-02-21 10:39 51°9.02 2°37.255 12.3 316 8.5 102180 95
2008-02-21 10:40 51°9.019 2°37.178 12.3 319 8.5 102180 95
2008-02-21 10:41 51°9.017 2°37.101 11.3 320 8.5 102190 95
2008-02-21 10:42 51°9.013 2°37.025 11.3 318 8.5 102200 94
2008-02-21 10:43 51°9.01 2°36.948 9.9 317 8.5 102200 94
2008-02-21 10:44 51°9.008 2°36.872 10.4 316 8.5 102190 94
2008-02-21 10:45 51°9.006 2°36.797 9.8 316 8.4 102200 95
2008-02-21 10:46 51°9.004 2°36.721 10.7 317 8.4 102190 95
2008-02-21 10:47 51°9.002 2°36.64 11.6 319 8.4 102200 95
2008-02-21 10:48 51°9 2°36.557 11.9 317 8.4 102200 95
2008-02-21 10:49 51°8.999 2°36.476 11.5 318 8.4 102200 95
2008-02-21 10:50 51°8.999 2°36.395 10.5 322 8.3 102210 95
2008-02-21 10:51 51°8.998 2°36.314 9.4 318 8.3 102210 95
2008-02-21 10:52 51°8.998 2°36.232 10.4 318 8.2 102210 95
2008-02-21 10:53 51°8.998 2°36.151 9.3 321 8.2 102200 96
2008-02-21 10:54 51°8.993 2°36.073 11.6 320 8.2 102200 96
2008-02-21 10:55 51°8.987 2°35.995 10 321 8.2 102200 96
2008-02-21 10:56 51°8.981 2°35.92 11.6 322 8.2 102200 96
2008-02-21 10:57 51°8.976 2°35.845 12.4 320 8.2 102200 96
2008-02-21 10:58 51°8.973 2°35.769 9.7 321 8.2 102200 96
2008-02-21 10:59 51°8.971 2°35.693 11.6 320 8.2 102200 96
2008-02-21 11:00 51°8.968 2°35.62 11.2 320 8.2 102200 96
2008-02-21 11:01 51°8.966 2°35.546 11.7 323 8.2 102200 96
2008-02-21 11:02 51°8.963 2°35.474 11.5 320 8.2 102200 97
2008-02-21 11:03 51°8.961 2°35.403 10.1 318 8.2 102190 96
2008-02-21 11:04 51°8.961 2°35.331 9.8 319 8.2 102190 97
2008-02-21 11:05 51°8.957 2°35.262 12.6 323 8.3 102190 97
2008-02-21 11:06 51°8.948 2°35.191 10.5 320 8.3 102190 96
2008-02-21 11:07 51°8.938 2°35.119 12.2 320 8.3 102180 96
2008-02-21 11:08 51°8.929 2°35.047 10.7 319 8.3 102180 96
2008-02-21 11:09 51°8.92 2°34.973 12.2 321 8.3 102180 96
2008-02-21 11:10 51°8.912 2°34.899 12.3 320 8.3 102180 96
2008-02-21 11:11 51°8.903 2°34.828 13 318 8.4 102170 96
2008-02-21 11:12 51°8.896 2°34.755 12.3 319 8.4 102180 96
2008-02-21 11:13 51°8.904 2°34.676 11.1 234 8.4 102180 96
2008-02-21 11:14 51°8.952 2°34.631 9.9 254 8.3 102190 96
2008-02-21 11:15 51°9.007 2°34.652 6.3 30 8.3 102200 96
2008-02-21 11:16 51°9.06 2°34.738 7.6 37 8.3 102210 96
2008-02-21 11:17 51°9.088 2°34.857 6.6 35 8.3 102210 96
2008-02-21 11:18 51°9.102 2°34.948 10.3 28 8.3 102210 96
2008-02-21 11:19 51°9.115 2°35.026 9.3 24 8.2 102210 96
2008-02-21 11:20 51°9.129 2°35.097 9.7 22 8.2 102220 97
2008-02-21 11:21 51°9.142 2°35.166 9.3 19 8.2 102210 97
2008-02-21 11:22 51°9.153 2°35.236 10.6 11 8.2 102200 97
2008-02-21 11:23 51°9.137 2°35.33 9.3 2 8.2 102200 97
2008-02-21 11:24 51°9.095 2°35.405 12.6 344 8.1 102180 97
2008-02-21 11:25 51°9.074 2°35.428 12 327 8.2 102170 97
2008-02-21 11:26 51°9.084 2°35.43 13.3 243 8.2 102170 98
2008-02-21 11:27 51°9.151 2°35.422 9.6 262 8.2 102180 97
2008-02-21 11:28 51°9.242 2°35.463 10.6 270 8.2 102190 98
2008-02-21 11:29 51°9.325 2°35.545 6.4 36 8.2 102200 98
2008-02-21 11:30 51°9.375 2°35.673 9 35 8.3 102200 98
2008-02-21 11:31 51°9.41 2°35.782 8.3 34 8.2 102200 97
2008-02-21 11:32 51°9.442 2°35.879 9.2 33 8.3 102200 98
2008-02-21 11:33 51°9.463 2°35.975 9.5 36 8.3 102180 98
2008-02-21 11:34 51°9.477 2°36.064 9.4 26 8.2 102180 97
2008-02-21 11:35 51°9.483 2°36.15 10.2 19 8.2 102180 97
2008-02-21 11:36 51°9.479 2°36.246 9.8 15 8.2 102180 98
2008-02-21 11:37 51°9.466 2°36.344 10.9 15 8.1 102170 98
2008-02-21 11:38 51°9.451 2°36.444 10.8 11 8.1 102170 98
2008-02-21 11:39 51°9.434 2°36.539 10.6 8 8.1 102160 98
2008-02-21 11:40 51°9.415 2°36.63 9.4 8 8.2 102160 98
2008-02-21 11:41 51°9.396 2°36.723 8.5 7 8.1 102160 98
2008-02-21 11:42 51°9.38 2°36.823 10.5 9 8.1 102160 98
2008-02-21 11:43 51°9.365 2°36.925 10.1 16 8.1 102160 98
2008-02-21 11:44 51°9.355 2°37.033 8.9 21 8.1 102160 98
2008-02-21 11:45 51°9.36 2°37.142 8 30 8.1 102160 98
2008-02-21 11:46 51°9.373 2°37.245 9.3 33 8.2 102170 98
2008-02-21 11:47 51°9.39 2°37.347 7.8 35 8.2 102170 98
2008-02-21 11:48 51°9.411 2°37.443 6.8 38 8.2 102170 98
2008-02-21 11:49 51°9.435 2°37.538 7.6 43 8.2 102170 98
2008-02-21 11:50 51°9.464 2°37.629 7.3 31 8.2 102170 98
2008-02-21 11:51 51°9.496 2°37.719 8 43 8.1 102160 98
2008-02-21 11:52 51°9.525 2°37.814 7 40 8.1 102160 98
2008-02-21 11:53 51°9.555 2°37.907 8 45 8.1 102170 98
2008-02-21 11:54 51°9.586 2°38 8.7 44 8.2 102170 98
2008-02-21 11:55 51°9.617 2°38.094 7.7 35 8.1 102160 98
2008-02-21 11:56 51°9.645 2°38.186 9.6 43 8.1 102160 98
2008-02-21 11:57 51°9.671 2°38.278 7.6 41 8.2 102150 98
2008-02-21 11:58 51°9.695 2°38.369 8.9 37 8.2 102150 98
2008-02-21 11:59 51°9.717 2°38.459 8.5 37 8.2 102140 98
2008-02-21 12:00 51°9.738 2°38.548 8 36 8.2 102150 98
2008-02-21 12:01 51°9.758 2°38.637 8.1 34 8.2 102140 98
2008-02-21 12:02 51°9.776 2°38.725 8.6 35 8.2 102150 98
2008-02-21 12:03 51°9.794 2°38.811 8.5 43 8.2 102140 98
2008-02-21 12:04 51°9.813 2°38.896 9.2 33 8.2 102140 98
2008-02-21 12:05 51°9.826 2°38.986 9.3 26 8.2 102140 98
2008-02-21 12:06 51°9.826 2°39.084 8.7 17 8.2 102150 98
2008-02-21 12:07 51°9.818 2°39.183 10.6 17 8.1 102140 98
2008-02-21 12:08 51°9.808 2°39.286 9.1 17 8.2 102130 98
2008-02-21 12:09 51°9.795 2°39.387 9.1 13 8.2 102140 98
2008-02-21 12:10 51°9.783 2°39.489 9.3 18 8.2 102140 98
2008-02-21 12:11 51°9.769 2°39.59 9.9 17 8.2 102140 98
2008-02-21 12:12 51°9.757 2°39.692 8.5 14 8.3 102130 98
2008-02-21 12:13 51°9.746 2°39.795 9.1 18 8.3 102140 98
2008-02-21 12:14 51°9.733 2°39.893 10.8 8 8.3 102140 98
2008-02-21 12:15 51°9.715 2°39.983 9.7 15 8.3 102140 98
2008-02-21 12:16 51°9.704 2°40.08 8 18 8.2 102140 98
2008-02-21 12:17 51°9.689 2°40.165 8 6 8.2 102160 98
2008-02-21 12:18 51°9.668 2°40.226 9.4 349 8.3 102160 98
2008-02-21 12:19 51°9.645 2°40.262 8.8 342 8.3 102140 98
2008-02-21 12:20 51°9.639 2°40.304 8.3 349 8.3 102150 98
2008-02-21 12:21 51°9.642 2°40.352 7.9 347 8.4 102140 98
2008-02-21 12:22 51°9.65 2°40.402 7.6 352 8.3 102140 97
2008-02-21 12:23 51°9.662 2°40.456 8.2 357 8.4 102150 97
2008-02-21 12:24 51°9.676 2°40.511 6.6 5 8.4 102150 97
2008-02-21 12:25 51°9.689 2°40.568 7.6 16 8.4 102160 97
2008-02-21 12:26 51°9.694 2°40.683 5.7 44 8.4 102150 97
2008-02-21 12:27 51°9.767 2°40.949 3 32 8.4 102150 97
2008-02-21 12:28 51°9.878 2°41.272 1.6 40 8.4 102150 97
2008-02-21 12:29 51°9.99 2°41.599 2.9 26 8.4 102150 97
2008-02-21 12:30 51°10.098 2°41.927 2.6 24 8.4 102150 97
2008-02-21 12:31 51°10.209 2°42.254 2.1 23 8.4 102150 97
2008-02-21 12:32 51°10.319 2°42.583 2.7 36 8.4 102150 97
2008-02-21 12:33 51°10.428 2°42.913 2.5 30 8.5 102150 97
2008-02-21 12:34 51°10.539 2°43.239 2 34 8.5 102150 97
2008-02-21 12:35 51°10.649 2°43.566 3.2 40 8.5 102150 97
2008-02-21 12:36 51°10.764 2°43.889 2.1 36 8.5 102150 97
2008-02-21 12:37 51°10.88 2°44.21 2 33 8.5 102150 97
2008-02-21 12:38 51°10.995 2°44.533 2.5 23 8.5 102150 96
2008-02-21 12:39 51°11.111 2°44.853 1.3 32 8.5 102150 96
2008-02-21 12:40 51°11.231 2°45.177 2.6 39 8.5 102150 96
2008-02-21 12:41 51°11.35 2°45.497 2.4 32 8.5 102150 96
2008-02-21 12:42 51°11.464 2°45.82 2.7 43 8.6 102150 96
2008-02-21 12:43 51°11.584 2°46.144 2.1 30 8.6 102150 96
2008-02-21 12:44 51°11.706 2°46.47 2.3 32 8.6 102150 96
2008-02-21 12:45 51°11.828 2°46.802 2 27 8.6 102150 96
2008-02-21 12:46 51°11.949 2°47.134 2.3 32 8.6 102150 96
2008-02-21 12:47 51°12.069 2°47.462 1.8 36 8.6 102150 96
2008-02-21 12:48 51°12.19 2°47.793 2.4 36 8.6 102150 96
2008-02-21 12:49 51°12.315 2°48.12 1.7 39 8.7 102150 96
2008-02-21 12:50 51°12.442 2°48.441 1.5 41 8.7 102150 96
2008-02-21 12:51 51°12.568 2°48.764 2 43 8.7 102150 95
2008-02-21 12:52 51°12.693 2°49.085 1.6 39 8.7 102150 95
2008-02-21 12:53 51°12.813 2°49.41 1.6 37 8.6 102150 95
2008-02-21 12:54 51°12.939 2°49.737 1.3 37 8.7 102150 95
2008-02-21 12:55 51°13.065 2°50.064 1.7 38 8.6 102150 95
2008-02-21 12:56 51°13.191 2°50.39 1.9 32 8.6 102150 95
2008-02-21 12:57 51°13.318 2°50.719 1.7 39 8.6 102150 95
2008-02-21 12:58 51°13.446 2°51.045 1.3 31 8.6 102150 95
2008-02-21 12:59 51°13.572 2°51.37 2 38 8.6 102150 94
2008-02-21 13:00 51°13.701 2°51.698 2.4 22 8.6 102150 94
2008-02-21 13:01 51°13.827 2°52.023 2.3 40 8.5 102150 94
2008-02-21 13:02 51°13.953 2°52.349 1.6 42 8.5 102150 94
2008-02-21 13:03 51°14.069 2°52.683 2.3 30 8.5 102150 94
2008-02-21 13:04 51°14.174 2°53.02 5 42 8.5 102140 95
2008-02-21 13:05 51°14.252 2°53.22 5.6 38 8.5 102140 95
2008-02-21 13:06 51°14.3 2°53.358 6.4 42 8.5 102130 95
2008-02-21 13:07 51°14.326 2°53.478 7.9 31 8.5 102120 95
2008-02-21 13:08 51°14.345 2°53.584 7.4 39 8.5 102120 94
2008-02-21 13:09 51°14.364 2°53.69 6.6 37 8.5 102120 95
2008-02-21 13:10 51°14.385 2°53.821 6.6 36 8.5 102120 94
2008-02-21 13:11 51°14.405 2°54.03 6 29 8.5 102120 95
2008-02-21 13:12 51°14.422 2°54.296 6.7 32 8.4 102120 94
2008-02-21 13:13 51°14.433 2°54.547 7.5 26 8.4 102110 94
2008-02-21 13:14 51°14.403 2°54.869 10.2 10 8.4 102110 95
2008-02-21 13:15 51°14.303 2°55.16 9.7 5 8.6 102090 95
2008-02-21 13:16 51°14.176 2°55.364 5.6 355 8.9 102090 95
2008-02-21 13:17 51°14.087 2°55.439 4.9 353 9.3 102120 95
2008-02-21 13:18 51°14.02 2°55.494 3.5 1 9.5 102120 94
2008-02-21 13:19 51°13.95 2°55.549 9.9 5 9.6 102120 93
2008-02-21 13:20 51°13.863 2°55.611 3.3 333 9.7 102110 92
2008-02-21 13:21 51°13.79 2°55.67 4 346 9.8 102120 91
2008-02-21 13:22 51°13.733 2°55.731 5 2 9.9 102120 91
2008-02-21 13:23 51°13.685 2°55.797 4.1 7 9.9 102120 90
2008-02-21 13:24 51°13.659 2°55.875 4.5 31 9.9 102120 90
2008-02-21 13:25 51°13.659 2°55.936 3.2 38 9.9 102130 90
2008-02-21 13:26 51°13.66 2°55.959 4.9 34 9.9 102130 90
2008-02-21 13:27 51°13.661 2°55.961 4.5 42 9.9 102130 90
2008-02-21 13:28 51°13.662 2°55.959 6.3 21 10 102130 89